createdAt,value
2018-11-25T07:45:21.241Z,16.10
2018-11-25T07:47:53.330Z,15.10
2018-11-25T07:50:24.088Z,15.97
2018-11-25T07:52:54.837Z,17.27
2018-11-25T08:04:46.778Z,20.57
2018-11-25T08:07:22.011Z,18.47
2018-11-25T08:09:55.692Z,19.50
2018-11-25T08:12:27.595Z,19.30
2018-11-25T08:15:10.574Z,20.73
2018-11-25T08:17:44.672Z,18.70
2018-11-25T08:20:20.523Z,19.60
2018-11-25T08:22:54.048Z,19.70
2018-11-25T08:25:27.735Z,19.80
2018-11-25T08:28:20.527Z,17.80
2018-11-25T08:47:22.284Z,16.97
2018-11-25T09:46:50.298Z,16.40
2018-11-25T10:32:59.740Z,16.77
2018-11-25T12:24:32.065Z,23.23
2018-11-25T12:27:02.881Z,21.13
2018-11-25T12:29:32.527Z,21.87
2018-11-25T12:32:01.559Z,22.37
2018-11-25T12:34:30.376Z,23.87
2018-11-25T12:36:59.140Z,23.13
2018-11-25T15:54:21.405Z,13.93
2018-11-25T15:57:47.944Z,14.43
2018-11-25T16:00:40.229Z,16.67
2018-11-25T16:10:12.850Z,12.27
2018-11-25T16:12:46.778Z,12.73
2018-11-25T16:15:20.678Z,12.90
2018-11-25T16:21:04.280Z,14.00
2018-11-25T16:23:43.980Z,13.90
2018-11-25T16:26:27.510Z,13.87
2018-11-25T16:29:09.040Z,13.00
2018-11-25T16:31:42.101Z,12.70
2018-11-25T16:34:21.876Z,12.60
2018-11-25T16:36:58.592Z,13.00
2018-11-25T16:39:33.088Z,12.80
2018-11-25T16:42:09.054Z,11.43
2018-11-25T16:44:52.418Z,14.07
2018-11-25T16:47:26.046Z,11.93
2018-11-25T16:50:00.962Z,12.83
2018-11-25T16:52:32.874Z,12.80
2018-11-25T16:55:07.961Z,13.47
2018-11-25T16:57:45.794Z,13.10
2018-11-25T17:00:19.100Z,11.90
2018-11-25T17:03:02.433Z,11.70
2018-11-25T17:09:28.404Z,12.60
2018-11-25T17:12:02.042Z,14.37
2018-11-25T17:18:24.556Z,12.90
2018-11-25T17:20:55.777Z,12.40
2018-11-25T17:26:57.483Z,13.10
2018-11-25T17:29:28.505Z,13.33
2018-11-25T17:36:12.014Z,13.03
2018-11-25T17:38:42.482Z,13.80
2018-11-25T17:41:15.201Z,13.23
2018-11-25T17:47:24.705Z,12.50
2018-11-25T17:49:54.854Z,13.27
2018-11-25T17:52:27.749Z,13.83
2018-11-25T17:54:59.462Z,13.07
2018-11-25T17:57:30.703Z,13.63
2018-11-25T19:06:03.057Z,8.90
2018-11-25T19:27:12.572Z,10.20
2018-11-25T19:29:49.838Z,11.90
2018-11-25T19:32:24.801Z,11.73
2018-11-25T19:35:23.695Z,12.80
2018-11-25T19:38:14.026Z,12.37
2018-11-25T19:40:52.807Z,12.43
2018-11-25T19:43:40.921Z,10.67
2018-11-25T19:46:16.206Z,11.80
